Terminal Aerodrome Forecast
Issued by NWS

Home | Current Version | Previous Version | Graphics & Text | Print | Product List | Glossary On
Versions: 1 2 3 4 5 6 7 8 9 10 11 12 13 14 15 16 17
520
FTUS43 KMPX 210259 AAA
TAFRNH
TAF AMD
KRNH 210259Z 2103/2124 23007KT 6SM BR OVC006
     FM210600 28009KT P6SM SCT006
     FM210800 23003KT 4SM BR SCT015
      TEMPO 2109/2113 1SM BR BKN008
     FM211500 22007KT P6SM SCT250=

USA.gov is the U.S. government's official web portal to all federal, state and local government web resources and services.